sensor_id;sensor_type;location;lat;lon;timestamp;pressure;altitude;pressure_sealevel;temperature;humidity
36726;BME280;44936;52.086;5.150;2023-06-04T00:00:24;102869.28;;;13.81;100.00
36726;BME280;44936;52.086;5.150;2023-06-04T00:02:50;102853.78;;;13.56;100.00
36726;BME280;44936;52.086;5.150;2023-06-04T00:05:15;102838.75;;;13.52;100.00
36726;BME280;44936;52.086;5.150;2023-06-04T00:07:41;102855.06;;;13.75;100.00
36726;BME280;44936;52.086;5.150;2023-06-04T00:10:06;102820.63;;;13.67;100.00
36726;BME280;44936;52.086;5.150;2023-06-04T00:12:32;102876.91;;;13.69;100.00
36726;BME280;44936;52.086;5.150;2023-06-04T00:14:57;102811.63;;;13.59;100.00
36726;BME280;44936;52.086;5.150;2023-06-04T00:17:22;102875.88;;;13.61;100.00
36726;BME280;44936;52.086;5.150;2023-06-04T00:19:48;102863.50;;;13.58;100.00
36726;BME280;44936;52.086;5.150;2023-06-04T00:22:13;102826.38;;;13.49;100.00
36726;BME280;44936;52.086;5.150;2023-06-04T00:24:39;102843.06;;;13.50;100.00
36726;BME280;44936;52.086;5.150;2023-06-04T00:27:07;102873.09;;;13.55;100.00
36726;BME280;44936;52.086;5.150;2023-06-04T00:29:32;102839.31;;;13.39;100.00
36726;BME280;44936;52.086;5.150;2023-06-04T00:31:58;102834.97;;;13.41;100.00
36726;BME280;44936;52.086;5.150;2023-06-04T00:34:23;102819.56;;;13.21;100.00
36726;BME280;44936;52.086;5.150;2023-06-04T00:36:48;102787.75;;;13.15;100.00
36726;BME280;44936;52.086;5.150;2023-06-04T00:39:14;102826.31;;;13.10;100.00
36726;BME280;44936;52.086;5.150;2023-06-04T00:41:39;102889.34;;;13.36;100.00
36726;BME280;44936;52.086;5.150;2023-06-04T00:44:04;102828.28;;;13.19;100.00
36726;BME280;44936;52.086;5.150;2023-06-04T00:46:32;102842.53;;;13.25;100.00
36726;BME280;44936;52.086;5.150;2023-06-04T00:48:58;102889.97;;;13.25;100.00
36726;BME280;44936;52.086;5.150;2023-06-04T00:51:24;102857.38;;;13.23;100.00
36726;BME280;44936;52.086;5.150;2023-06-04T00:53:51;102814.63;;;12.99;100.00
36726;BME280;44936;52.086;5.150;2023-06-04T00:56:17;102844.16;;;13.20;100.00
36726;BME280;44936;52.086;5.150;2023-06-04T00:58:44;102901.06;;;13.15;100.00
36726;BME280;44936;52.086;5.150;2023-06-04T01:01:41;102884.41;;;13.16;100.00
36726;BME280;44936;52.086;5.150;2023-06-04T01:04:14;102877.97;;;13.05;100.00
36726;BME280;44936;52.086;5.150;2023-06-04T01:06:50;102861.25;;;13.03;100.00
36726;BME280;44936;52.086;5.150;2023-06-04T01:09:16;102887.59;;;13.03;100.00
36726;BME280;44936;52.086;5.150;2023-06-04T01:11:41;102860.22;;;12.98;100.00
36726;BME280;44936;52.086;5.150;2023-06-04T01:14:09;102873.50;;;13.01;100.00
36726;BME280;44936;52.086;5.150;2023-06-04T01:16:39;102885.75;;;12.99;100.00
36726;BME280;44936;52.086;5.150;2023-06-04T01:19:13;102863.72;;;12.97;100.00
36726;BME280;44936;52.086;5.150;2023-06-04T01:21:49;102838.78;;;12.83;100.00
36726;BME280;44936;52.086;5.150;2023-06-04T01:24:17;102850.97;;;12.79;100.00
36726;BME280;44936;52.086;5.150;2023-06-04T01:26:46;102851.88;;;12.80;100.00
36726;BME280;44936;52.086;5.150;2023-06-04T01:29:12;102896.03;;;12.90;100.00
36726;BME280;44936;52.086;5.150;2023-06-04T01:31:38;102891.28;;;12.76;100.00
36726;BME280;44936;52.086;5.150;2023-06-04T01:34:03;102875.63;;;12.81;100.00
36726;BME280;44936;52.086;5.150;2023-06-04T01:36:29;102885.34;;;12.84;100.00
36726;BME280;44936;52.086;5.150;2023-06-04T01:38:54;102886.72;;;12.69;100.00
36726;BME280;44936;52.086;5.150;2023-06-04T01:41:20;102847.91;;;12.62;100.00
36726;BME280;44936;52.086;5.150;2023-06-04T01:43:45;102877.03;;;12.68;100.00
36726;BME280;44936;52.086;5.150;2023-06-04T01:46:11;102876.16;;;12.69;100.00
36726;BME280;44936;52.086;5.150;2023-06-04T01:48:36;102812.69;;;12.57;100.00
36726;BME280;44936;52.086;5.150;2023-06-04T01:51:02;102847.75;;;12.56;100.00
36726;BME280;44936;52.086;5.150;2023-06-04T01:53:28;102833.97;;;12.66;100.00
36726;BME280;44936;52.086;5.150;2023-06-04T01:55:53;102840.94;;;12.64;100.00
36726;BME280;44936;52.086;5.150;2023-06-04T01:58:19;102842.81;;;12.68;100.00
36726;BME280;44936;52.086;5.150;2023-06-04T02:00:53;102817.94;;;12.57;100.00
36726;BME280;44936;52.086;5.150;2023-06-04T02:03:20;102828.53;;;12.60;100.00
36726;BME280;44936;52.086;5.150;2023-06-04T02:05:49;102844.81;;;12.45;100.00
36726;BME280;44936;52.086;5.150;2023-06-04T02:08:15;102871.69;;;12.65;100.00
36726;BME280;44936;52.086;5.150;2023-06-04T02:10:47;102792.84;;;12.37;100.00
36726;BME280;44936;52.086;5.150;2023-06-04T02:13:13;102826.22;;;12.38;100.00
36726;BME280;44936;52.086;5.150;2023-06-04T02:15:38;102867.09;;;12.58;100.00
36726;BME280;44936;52.086;5.150;2023-06-04T02:18:15;102863.38;;;12.50;100.00
36726;BME280;44936;52.086;5.150;2023-06-04T02:20:45;102849.44;;;12.54;100.00
36726;BME280;44936;52.086;5.150;2023-06-04T02:23:15;102848.41;;;12.47;100.00
36726;BME280;44936;52.086;5.150;2023-06-04T02:25:41;102833.25;;;12.39;100.00
36726;BME280;44936;52.086;5.150;2023-06-04T02:28:06;102862.31;;;12.43;100.00
36726;BME280;44936;52.086;5.150;2023-06-04T02:30:32;102895.84;;;12.51;100.00
36726;BME280;44936;52.086;5.150;2023-06-04T02:32:57;102882.56;;;12.46;100.00
36726;BME280;44936;52.086;5.150;2023-06-04T02:35:28;102865.59;;;12.36;100.00
36726;BME280;44936;52.086;5.150;2023-06-04T02:37:54;102827.72;;;12.30;100.00
36726;BME280;44936;52.086;5.150;2023-06-04T02:40:21;102832.38;;;12.08;100.00
36726;BME280;44936;52.086;5.150;2023-06-04T02:42:47;102808.03;;;12.15;100.00
36726;BME280;44936;52.086;5.150;2023-06-04T02:45:12;102852.34;;;12.32;100.00
36726;BME280;44936;52.086;5.150;2023-06-04T02:47:37;102877.75;;;12.31;100.00
36726;BME280;44936;52.086;5.150;2023-06-04T02:50:03;102902.28;;;12.30;100.00
36726;BME280;44936;52.086;5.150;2023-06-04T02:52:29;102849.22;;;12.15;100.00
36726;BME280;44936;52.086;5.150;2023-06-04T02:54:55;102867.91;;;12.24;100.00
36726;BME280;44936;52.086;5.150;2023-06-04T02:57:21;102836.44;;;11.97;100.00
36726;BME280;44936;52.086;5.150;2023-06-04T02:59:46;102861.47;;;12.13;100.00
36726;BME280;44936;52.086;5.150;2023-06-04T03:02:12;102869.13;;;12.05;100.00
36726;BME280;44936;52.086;5.150;2023-06-04T03:04:37;102847.41;;;12.12;100.00
36726;BME280;44936;52.086;5.150;2023-06-04T03:07:03;102824.53;;;12.10;100.00
36726;BME280;44936;52.086;5.150;2023-06-04T03:09:32;102860.38;;;12.06;100.00
36726;BME280;44936;52.086;5.150;2023-06-04T03:12:02;102893.06;;;12.14;100.00
36726;BME280;44936;52.086;5.150;2023-06-04T03:14:28;102813.59;;;11.95;100.00
36726;BME280;44936;52.086;5.150;2023-06-04T03:17:00;102850.00;;;12.11;100.00
36726;BME280;44936;52.086;5.150;2023-06-04T03:19:36;102855.97;;;12.05;100.00
36726;BME280;44936;52.086;5.150;2023-06-04T03:22:03;102871.78;;;12.07;100.00
36726;BME280;44936;52.086;5.150;2023-06-04T03:24:37;102879.59;;;12.04;100.00
36726;BME280;44936;52.086;5.150;2023-06-04T03:27:04;102843.28;;;11.92;100.00
36726;BME280;44936;52.086;5.150;2023-06-04T03:29:31;102848.50;;;11.90;100.00
36726;BME280;44936;52.086;5.150;2023-06-04T03:31:57;102830.47;;;11.74;100.00
36726;BME280;44936;52.086;5.150;2023-06-04T03:34:23;102868.16;;;11.75;100.00
36726;BME280;44936;52.086;5.150;2023-06-04T03:36:52;102875.69;;;11.91;100.00
36726;BME280;44936;52.086;5.150;2023-06-04T03:39:17;102860.50;;;11.81;100.00
36726;BME280;44936;52.086;5.150;2023-06-04T03:41:43;102836.53;;;11.72;100.00
36726;BME280;44936;52.086;5.150;2023-06-04T03:44:08;102862.13;;;11.77;100.00
36726;BME280;44936;52.086;5.150;2023-06-04T03:46:34;102844.50;;;11.75;100.00
36726;BME280;44936;52.086;5.150;2023-06-04T03:49:00;102870.91;;;11.78;100.00
36726;BME280;44936;52.086;5.150;2023-06-04T03:51:26;102887.72;;;11.83;100.00
36726;BME280;44936;52.086;5.150;2023-06-04T03:53:51;102868.00;;;11.69;100.00
36726;BME280;44936;52.086;5.150;2023-06-04T03:56:17;102841.81;;;11.73;100.00
36726;BME280;44936;52.086;5.150;2023-06-04T03:58:43;102860.38;;;11.78;100.00
36726;BME280;44936;52.086;5.150;2023-06-04T04:01:08;102864.91;;;11.82;100.00
36726;BME280;44936;52.086;5.150;2023-06-04T04:03:36;102914.97;;;11.85;100.00
36726;BME280;44936;52.086;5.150;2023-06-04T04:06:01;102868.50;;;11.84;100.00
36726;BME280;44936;52.086;5.150;2023-06-04T04:08:27;102876.19;;;11.79;100.00
36726;BME280;44936;52.086;5.150;2023-06-04T04:10:57;102897.34;;;11.82;100.00
36726;BME280;44936;52.086;5.150;2023-06-04T04:13:22;102864.50;;;11.70;100.00
36726;BME280;44936;52.086;5.150;2023-06-04T04:15:47;102878.91;;;11.81;100.00
36726;BME280;44936;52.086;5.150;2023-06-04T04:18:13;102897.19;;;11.78;100.00
36726;BME280;44936;52.086;5.150;2023-06-04T04:20:38;102890.81;;;11.70;100.00
36726;BME280;44936;52.086;5.150;2023-06-04T04:23:04;102892.91;;;11.80;100.00
36726;BME280;44936;52.086;5.150;2023-06-04T04:25:29;102862.28;;;11.82;100.00
36726;BME280;44936;52.086;5.150;2023-06-04T04:27:57;102875.09;;;11.73;100.00
36726;BME280;44936;52.086;5.150;2023-06-04T04:30:25;102883.28;;;11.80;100.00
36726;BME280;44936;52.086;5.150;2023-06-04T04:32:50;102885.53;;;11.70;100.00
36726;BME280;44936;52.086;5.150;2023-06-04T04:35:16;102893.56;;;11.74;100.00
36726;BME280;44936;52.086;5.150;2023-06-04T04:37:45;102909.75;;;11.86;100.00
36726;BME280;44936;52.086;5.150;2023-06-04T04:40:11;102892.94;;;11.81;100.00
36726;BME280;44936;52.086;5.150;2023-06-04T04:42:37;102882.41;;;11.81;100.00
36726;BME280;44936;52.086;5.150;2023-06-04T04:45:03;102901.91;;;11.88;100.00
36726;BME280;44936;52.086;5.150;2023-06-04T04:47:29;102923.06;;;11.93;100.00
36726;BME280;44936;52.086;5.150;2023-06-04T04:49:54;102906.31;;;11.89;100.00
36726;BME280;44936;52.086;5.150;2023-06-04T04:52:20;102961.13;;;12.04;100.00
36726;BME280;44936;52.086;5.150;2023-06-04T04:54:45;102947.94;;;12.02;100.00
36726;BME280;44936;52.086;5.150;2023-06-04T04:57:11;102931.34;;;12.05;100.00
36726;BME280;44936;52.086;5.150;2023-06-04T04:59:36;102924.34;;;12.05;100.00
36726;BME280;44936;52.086;5.150;2023-06-04T05:02:01;102905.88;;;12.02;100.00
36726;BME280;44936;52.086;5.150;2023-06-04T05:04:27;102909.44;;;12.04;100.00
36726;BME280;44936;52.086;5.150;2023-06-04T05:06:52;102913.84;;;12.05;100.00
36726;BME280;44936;52.086;5.150;2023-06-04T05:09:18;102945.72;;;12.16;100.00
36726;BME280;44936;52.086;5.150;2023-06-04T05:11:43;102951.13;;;12.21;100.00
36726;BME280;44936;52.086;5.150;2023-06-04T05:14:09;102924.91;;;12.24;100.00
36726;BME280;44936;52.086;5.150;2023-06-04T05:16:34;102917.97;;;12.27;100.00
36726;BME280;44936;52.086;5.150;2023-06-04T05:19:03;102928.47;;;12.26;100.00
36726;BME280;44936;52.086;5.150;2023-06-04T05:21:29;102937.50;;;12.35;100.00
36726;BME280;44936;52.086;5.150;2023-06-04T05:23:54;102915.59;;;12.36;100.00
36726;BME280;44936;52.086;5.150;2023-06-04T05:26:20;102903.41;;;12.38;100.00
36726;BME280;44936;52.086;5.150;2023-06-04T05:28:53;102894.47;;;12.33;100.00
36726;BME280;44936;52.086;5.150;2023-06-04T05:31:18;102880.50;;;12.36;100.00
36726;BME280;44936;52.086;5.150;2023-06-04T05:33:44;102893.22;;;12.51;100.00
36726;BME280;44936;52.086;5.150;2023-06-04T05:36:09;102896.78;;;12.53;100.00
36726;BME280;44936;52.086;5.150;2023-06-04T05:38:35;102914.56;;;12.61;100.00
36726;BME280;44936;52.086;5.150;2023-06-04T05:41:01;102914.59;;;12.63;100.00
36726;BME280;44936;52.086;5.150;2023-06-04T05:43:26;102891.84;;;12.63;100.00
36726;BME280;44936;52.086;5.150;2023-06-04T05:45:52;102891.03;;;12.67;100.00
36726;BME280;44936;52.086;5.150;2023-06-04T05:48:17;102885.75;;;12.66;100.00
36726;BME280;44936;52.086;5.150;2023-06-04T05:50:43;102902.66;;;12.74;100.00
36726;BME280;44936;52.086;5.150;2023-06-04T05:53:08;102880.56;;;12.69;100.00
36726;BME280;44936;52.086;5.150;2023-06-04T05:55:33;102896.72;;;12.83;100.00
36726;BME280;44936;52.086;5.150;2023-06-04T05:57:59;102921.56;;;12.92;100.00
36726;BME280;44936;52.086;5.150;2023-06-04T06:00:24;102900.47;;;12.91;100.00
36726;BME280;44936;52.086;5.150;2023-06-04T06:02:50;102915.66;;;13.01;100.00
36726;BME280;44936;52.086;5.150;2023-06-04T06:05:17;102894.31;;;12.90;100.00
36726;BME280;44936;52.086;5.150;2023-06-04T06:07:44;102914.91;;;13.07;100.00
36726;BME280;44936;52.086;5.150;2023-06-04T06:10:09;102878.84;;;13.04;100.00
36726;BME280;44936;52.086;5.150;2023-06-04T06:12:35;102893.97;;;13.13;100.00
36726;BME280;44936;52.086;5.150;2023-06-04T06:15:00;102862.34;;;13.11;100.00
36726;BME280;44936;52.086;5.150;2023-06-04T06:17:25;102866.81;;;13.15;100.00
36726;BME280;44936;52.086;5.150;2023-06-04T06:19:52;102880.19;;;13.21;100.00
36726;BME280;44936;52.086;5.150;2023-06-04T06:22:17;102895.22;;;13.25;100.00
36726;BME280;44936;52.086;5.150;2023-06-04T06:24:42;102878.66;;;13.31;100.00
36726;BME280;44936;52.086;5.150;2023-06-04T06:27:07;102885.84;;;13.37;100.00
36726;BME280;44936;52.086;5.150;2023-06-04T06:29:33;102891.16;;;13.40;100.00
36726;BME280;44936;52.086;5.150;2023-06-04T06:31:59;102891.31;;;13.46;100.00
36726;BME280;44936;52.086;5.150;2023-06-04T06:34:24;102853.88;;;13.23;100.00
36726;BME280;44936;52.086;5.150;2023-06-04T06:36:50;102883.50;;;13.50;100.00
36726;BME280;44936;52.086;5.150;2023-06-04T06:39:15;102878.22;;;13.49;100.00
36726;BME280;44936;52.086;5.150;2023-06-04T06:41:41;102884.69;;;13.63;100.00
36726;BME280;44936;52.086;5.150;2023-06-04T06:44:07;102871.44;;;13.60;100.00
36726;BME280;44936;52.086;5.150;2023-06-04T06:46:32;102846.75;;;13.56;100.00
36726;BME280;44936;52.086;5.150;2023-06-04T06:48:58;102866.47;;;13.74;100.00
36726;BME280;44936;52.086;5.150;2023-06-04T06:51:23;102870.16;;;13.80;100.00
36726;BME280;44936;52.086;5.150;2023-06-04T06:53:49;102889.56;;;13.84;100.00
36726;BME280;44936;52.086;5.150;2023-06-04T06:56:16;102880.81;;;13.86;100.00
36726;BME280;44936;52.086;5.150;2023-06-04T06:58:41;102875.63;;;13.89;100.00
36726;BME280;44936;52.086;5.150;2023-06-04T07:01:06;102877.44;;;13.92;100.00
36726;BME280;44936;52.086;5.150;2023-06-04T07:03:32;102870.53;;;13.97;100.00
36726;BME280;44936;52.086;5.150;2023-06-04T07:05:57;102849.28;;;13.91;100.00
36726;BME280;44936;52.086;5.150;2023-06-04T07:08:22;102849.47;;;14.00;100.00
36726;BME280;44936;52.086;5.150;2023-06-04T07:10:48;102864.66;;;14.12;100.00
36726;BME280;44936;52.086;5.150;2023-06-04T07:13:13;102863.91;;;14.19;100.00
36726;BME280;44936;52.086;5.150;2023-06-04T07:15:38;102890.50;;;14.28;100.00
36726;BME280;44936;52.086;5.150;2023-06-04T07:18:04;102891.31;;;14.24;100.00
36726;BME280;44936;52.086;5.150;2023-06-04T07:20:29;102856.16;;;14.27;100.00
36726;BME280;44936;52.086;5.150;2023-06-04T07:22:56;102829.09;;;14.38;100.00
36726;BME280;44936;52.086;5.150;2023-06-04T07:25:21;102846.91;;;14.47;100.00
36726;BME280;44936;52.086;5.150;2023-06-04T07:27:49;102835.44;;;14.45;100.00
36726;BME280;44936;52.086;5.150;2023-06-04T07:30:16;102842.69;;;14.57;100.00
36726;BME280;44936;52.086;5.150;2023-06-04T07:32:41;102803.88;;;14.51;100.00
36726;BME280;44936;52.086;5.150;2023-06-04T07:35:10;102850.78;;;14.66;100.00
36726;BME280;44936;52.086;5.150;2023-06-04T07:37:36;102838.44;;;14.66;100.00
36726;BME280;44936;52.086;5.150;2023-06-04T07:40:02;102828.66;;;14.59;100.00
36726;BME280;44936;52.086;5.150;2023-06-04T07:42:27;102815.44;;;14.58;100.00
36726;BME280;44936;52.086;5.150;2023-06-04T07:44:52;102763.50;;;14.58;100.00
36726;BME280;44936;52.086;5.150;2023-06-04T07:47:18;102782.31;;;14.78;100.00
36726;BME280;44936;52.086;5.150;2023-06-04T07:49:43;102793.19;;;14.96;100.00
36726;BME280;44936;52.086;5.150;2023-06-04T07:52:09;102781.91;;;15.07;100.00
36726;BME280;44936;52.086;5.150;2023-06-04T07:54:34;102797.88;;;15.14;100.00
36726;BME280;44936;52.086;5.150;2023-06-04T07:57:00;102790.84;;;15.15;100.00
36726;BME280;44936;52.086;5.150;2023-06-04T07:59:25;102764.38;;;15.12;100.00
36726;BME280;44936;52.086;5.150;2023-06-04T08:01:51;102762.78;;;15.24;100.00
36726;BME280;44936;52.086;5.150;2023-06-04T08:04:19;102751.41;;;15.30;100.00
36726;BME280;44936;52.086;5.150;2023-06-04T08:06:46;102770.94;;;15.41;100.00
36726;BME280;44936;52.086;5.150;2023-06-04T08:09:13;102760.38;;;15.43;100.00
36726;BME280;44936;52.086;5.150;2023-06-04T08:11:40;102753.44;;;15.49;100.00
36726;BME280;44936;52.086;5.150;2023-06-04T08:14:06;102733.19;;;15.54;100.00
36726;BME280;44936;52.086;5.150;2023-06-04T08:16:32;102716.66;;;15.68;100.00
36726;BME280;44936;52.086;5.150;2023-06-04T08:18:58;102722.91;;;15.74;100.00
36726;BME280;44936;52.086;5.150;2023-06-04T08:21:27;102721.19;;;15.79;100.00
36726;BME280;44936;52.086;5.150;2023-06-04T08:23:53;102708.03;;;15.82;100.00
36726;BME280;44936;52.086;5.150;2023-06-04T08:26:19;102677.00;;;15.71;100.00
36726;BME280;44936;52.086;5.150;2023-06-04T08:28:48;102724.09;;;15.99;100.00
36726;BME280;44936;52.086;5.150;2023-06-04T08:31:14;102678.22;;;16.00;100.00
36726;BME280;44936;52.086;5.150;2023-06-04T08:33:40;102718.97;;;16.18;100.00
36726;BME280;44936;52.086;5.150;2023-06-04T08:36:06;102720.75;;;16.19;100.00
36726;BME280;44936;52.086;5.150;2023-06-04T08:38:32;102709.38;;;16.30;100.00
36726;BME280;44936;52.086;5.150;2023-06-04T08:41:04;102708.50;;;16.33;100.00
36726;BME280;44936;52.086;5.150;2023-06-04T08:43:33;102690.97;;;16.47;100.00
36726;BME280;44936;52.086;5.150;2023-06-04T08:46:00;102650.44;;;16.54;100.00
36726;BME280;44936;52.086;5.150;2023-06-04T08:48:32;102663.75;;;16.68;100.00
36726;BME280;44936;52.086;5.150;2023-06-04T08:50:59;102674.50;;;16.83;100.00
36726;BME280;44936;52.086;5.150;2023-06-04T08:53:26;102698.47;;;17.03;100.00
36726;BME280;44936;52.086;5.150;2023-06-04T08:55:53;102658.75;;;17.08;100.00
36726;BME280;44936;52.086;5.150;2023-06-04T08:58:19;102642.88;;;17.18;100.00
36726;BME280;44936;52.086;5.150;2023-06-04T09:00:45;102630.53;;;17.31;100.00
36726;BME280;44936;52.086;5.150;2023-06-04T09:03:10;102624.38;;;17.40;100.00
36726;BME280;44936;52.086;5.150;2023-06-04T09:05:37;102650.97;;;17.61;100.00
36726;BME280;44936;52.086;5.150;2023-06-04T09:08:05;102641.28;;;17.69;100.00
36726;BME280;44936;52.086;5.150;2023-06-04T09:10:33;102654.59;;;17.78;100.00
36726;BME280;44936;52.086;5.150;2023-06-04T09:13:01;102608.59;;;17.81;100.00
36726;BME280;44936;52.086;5.150;2023-06-04T09:15:28;102618.31;;;17.90;100.00
36726;BME280;44936;52.086;5.150;2023-06-04T09:17:53;102587.34;;;17.89;100.00
36726;BME280;44936;52.086;5.150;2023-06-04T09:20:22;102620.09;;;18.10;100.00
36726;BME280;44936;52.086;5.150;2023-06-04T09:22:48;102588.22;;;18.01;100.00
36726;BME280;44936;52.086;5.150;2023-06-04T09:25:26;102598.84;;;18.17;100.00
36726;BME280;44936;52.086;5.150;2023-06-04T09:27:53;102595.28;;;18.28;100.00
36726;BME280;44936;52.086;5.150;2023-06-04T09:30:20;102580.25;;;18.27;100.00
36726;BME280;44936;52.086;5.150;2023-06-04T09:32:46;102587.31;;;18.37;100.00
36726;BME280;44936;52.086;5.150;2023-06-04T09:35:16;102555.47;;;18.31;100.00
36726;BME280;44936;52.086;5.150;2023-06-04T09:37:51;102541.28;;;18.38;100.00
36726;BME280;44936;52.086;5.150;2023-06-04T09:40:17;102550.13;;;18.44;100.00
36726;BME280;44936;52.086;5.150;2023-06-04T09:42:46;102531.53;;;18.44;100.00
36726;BME280;44936;52.086;5.150;2023-06-04T09:45:26;102563.41;;;18.56;100.00
36726;BME280;44936;52.086;5.150;2023-06-04T09:47:51;102563.38;;;18.66;100.00
36726;BME280;44936;52.086;5.150;2023-06-04T09:50:24;102546.53;;;18.75;100.00
36726;BME280;44936;52.086;5.150;2023-06-04T09:52:50;102556.25;;;18.82;100.00
36726;BME280;44936;52.086;5.150;2023-06-04T09:55:17;102553.59;;;18.82;100.00
36726;BME280;44936;52.086;5.150;2023-06-04T09:57:47;102560.56;;;19.05;100.00
36726;BME280;44936;52.086;5.150;2023-06-04T10:00:21;102551.72;;;19.03;100.00
36726;BME280;44936;52.086;5.150;2023-06-04T10:02:48;102555.19;;;19.14;100.00
36726;BME280;44936;52.086;5.150;2023-06-04T10:05:15;102578.19;;;19.27;100.00
36726;BME280;44936;52.086;5.150;2023-06-04T10:07:45;102560.38;;;19.40;100.00
36726;BME280;44936;52.086;5.150;2023-06-04T10:10:14;102537.25;;;19.52;100.00
36726;BME280;44936;52.086;5.150;2023-06-04T10:12:41;102502.72;;;19.40;100.00
36726;BME280;44936;52.086;5.150;2023-06-04T10:15:10;102529.25;;;19.51;100.00
36726;BME280;44936;52.086;5.150;2023-06-04T10:17:37;102491.13;;;19.47;100.00
36726;BME280;44936;52.086;5.150;2023-06-04T10:20:03;102480.44;;;19.53;100.00
36726;BME280;44936;52.086;5.150;2023-06-04T10:22:33;102519.44;;;19.64;100.00
36726;BME280;44936;52.086;5.150;2023-06-04T10:24:59;102506.00;;;19.77;100.00
36726;BME280;44936;52.086;5.150;2023-06-04T10:27:25;102503.34;;;19.79;100.00
36726;BME280;44936;52.086;5.150;2023-06-04T10:29:51;102431.56;;;19.65;100.00
36726;BME280;44936;52.086;5.150;2023-06-04T10:32:17;102487.28;;;19.88;100.00
36726;BME280;44936;52.086;5.150;2023-06-04T10:34:43;102444.75;;;19.80;100.00
36726;BME280;44936;52.086;5.150;2023-06-04T10:37:25;102442.03;;;19.84;100.00
36726;BME280;44936;52.086;5.150;2023-06-04T10:39:52;102468.53;;;19.96;100.00
36726;BME280;44936;52.086;5.150;2023-06-04T10:42:18;102492.47;;;20.00;100.00
36726;BME280;44936;52.086;5.150;2023-06-04T10:44:49;102523.56;;;20.00;100.00
36726;BME280;44936;52.086;5.150;2023-06-04T10:47:21;102508.31;;;20.14;100.00
36726;BME280;44936;52.086;5.150;2023-06-04T10:49:47;102442.72;;;20.05;100.00
36726;BME280;44936;52.086;5.150;2023-06-04T10:52:13;102404.59;;;20.00;100.00
36726;BME280;44936;52.086;5.150;2023-06-04T10:54:38;102431.13;;;20.09;100.00
36726;BME280;44936;52.086;5.150;2023-06-04T10:57:14;102411.91;;;19.82;100.00
36726;BME280;44936;52.086;5.150;2023-06-04T10:59:41;102469.19;;;20.19;100.00
36726;BME280;44936;52.086;5.150;2023-06-04T11:02:08;102453.28;;;20.15;100.00
36726;BME280;44936;52.086;5.150;2023-06-04T11:04:33;102424.00;;;20.10;100.00
36726;BME280;44936;52.086;5.150;2023-06-04T11:07:07;102394.84;;;19.96;100.00
36726;BME280;44936;52.086;5.150;2023-06-04T11:09:50;102413.31;;;20.13;100.00
36726;BME280;44936;52.086;5.150;2023-06-04T11:12:16;102414.97;;;20.22;100.00
36726;BME280;44936;52.086;5.150;2023-06-04T11:14:56;102452.19;;;20.29;100.00
36726;BME280;44936;52.086;5.150;2023-06-04T11:17:21;102467.16;;;20.40;100.00
36726;BME280;44936;52.086;5.150;2023-06-04T11:19:46;102485.78;;;20.47;100.00
36726;BME280;44936;52.086;5.150;2023-06-04T11:22:12;102429.13;;;20.28;100.00
36726;BME280;44936;52.086;5.150;2023-06-04T11:24:38;102429.94;;;20.35;100.00
36726;BME280;44936;52.086;5.150;2023-06-04T11:27:03;102465.47;;;20.35;100.00
36726;BME280;44936;52.086;5.150;2023-06-04T11:29:29;102476.94;;;20.42;100.00
36726;BME280;44936;52.086;5.150;2023-06-04T11:31:54;102415.78;;;20.30;100.00
36726;BME280;44936;52.086;5.150;2023-06-04T11:34:27;102491.13;;;20.43;100.00
36726;BME280;44936;52.086;5.150;2023-06-04T11:36:53;102527.53;;;20.47;100.00
36726;BME280;44936;52.086;5.150;2023-06-04T11:39:20;102427.31;;;20.30;100.00
36726;BME280;44936;52.086;5.150;2023-06-04T11:41:46;102443.22;;;20.36;100.00
36726;BME280;44936;52.086;5.150;2023-06-04T11:44:12;102433.50;;;20.31;100.00
36726;BME280;44936;52.086;5.150;2023-06-04T11:46:43;102417.66;;;20.20;100.00
36726;BME280;44936;52.086;5.150;2023-06-04T11:49:13;102415.94;;;20.16;100.00
36726;BME280;44936;52.086;5.150;2023-06-04T11:51:48;102459.28;;;20.32;100.00
36726;BME280;44936;52.086;5.150;2023-06-04T11:54:15;102405.31;;;20.15;100.00
36726;BME280;44936;52.086;5.150;2023-06-04T11:56:42;102445.16;;;20.25;100.00
36726;BME280;44936;52.086;5.150;2023-06-04T11:59:15;102444.19;;;20.29;100.00
36726;BME280;44936;52.086;5.150;2023-06-04T12:01:42;102460.97;;;20.37;100.00
36726;BME280;44936;52.086;5.150;2023-06-04T12:04:18;102413.09;;;20.33;100.00
36726;BME280;44936;52.086;5.150;2023-06-04T12:09:21;102453.81;;;20.46;100.00
36726;BME280;44936;52.086;5.150;2023-06-04T12:11:47;102482.97;;;20.59;100.00
36726;BME280;44936;52.086;5.150;2023-06-04T12:14:16;102490.09;;;20.57;100.00
36726;BME280;44936;52.086;5.150;2023-06-04T12:16:57;102448.38;;;20.53;100.00
36726;BME280;44936;52.086;5.150;2023-06-04T12:19:23;102432.41;;;20.53;100.00
36726;BME280;44936;52.086;5.150;2023-06-04T12:22:05;102514.75;;;20.75;100.00
36726;BME280;44936;52.086;5.150;2023-06-04T12:24:34;102427.91;;;20.58;100.00
36726;BME280;44936;52.086;5.150;2023-06-04T12:27:07;102442.03;;;20.63;100.00
36726;BME280;44936;52.086;5.150;2023-06-04T12:29:33;102426.13;;;20.59;100.00
36726;BME280;44936;52.086;5.150;2023-06-04T12:32:08;102441.03;;;20.72;100.00
36726;BME280;44936;52.086;5.150;2023-06-04T12:34:37;102473.00;;;20.74;100.00
36726;BME280;44936;52.086;5.150;2023-06-04T12:37:02;102475.59;;;20.80;100.00
36726;BME280;44936;52.086;5.150;2023-06-04T12:39:29;102422.38;;;20.71;100.00
36726;BME280;44936;52.086;5.150;2023-06-04T12:41:55;102434.59;;;20.87;100.00